Ana Sayfa
METAR-TAF:

METAR-TAF

Havaalanları :

Porto Alegre, Rio Grande do Sul, Brezilya

Enlem: 30-01S, Boylam: 051-13W, yükseklik: 47 m

Güncel hava durumu gözlemi

Rapor saat 00:00 UTC de 38 dakika önce yapıldı.
Rüzgar doğudan 5 kt
Sıcaklık 19°C
Nem 94%
Basınç 1013 hPa
Görüş mesafesi 10 km veya daha fazla
1500 m altında bulut yok ve kümülonimbus yok

METAR: SBCO 190000Z 09005KT CAVOK 19/18 Q1013

Saat: 21:38 (00:38 UTC)

Tahmin

Rapor saat 21:00 UTC de 3 saat ve 38 dakika önce yapıldı.
Ayın 19'si saat 00 UTC'den ayın 19'si saat 12 UTC'ye kadar geçerli Tahmin
Rüzgar kuzeybatıdan 5 kt
Görüş mesafesi 10 km veya daha fazla
4000 ft yükseklikte parçalı bulutlu
Geçici
ayın 19'si saat 06 UTC'den ayın 19'si saat 11 UTC'ye kadar
Rüzgar kuzeydan kt
Görüş mesafesi: 0300 m
200 ft yükseklikte
sis

TAF: SBCO 182100Z 1900/1912 32005KT 9999 SCT040 TX19/1900Z TN15/1908Z TEMPO 1906/1911 00000KT 0300 FG VV002 RMK PDJ

4.000'den fazla havaalanı için hava durumu gözlemleri ve tahminleri (METAR ve TAF raporları).

Kullanılabilir istasyonlar harita üzerinde sarı ve kırmızı noktalarla gösterilir.

İstasyonun adını görmek için fareyi noktanın üzerinde gezdirin.

Sonrasında hava gözlem ve tahminlerini görmek için tıklayın.

Haritayı değiştirmek için: yaklaştırmak için siyah artı işaretli yeşil düğmeye ve uzaklaştırmak için de eksi işaretli düğmeye hızla tıklayın; bitişik haritalar için yeşil okları kullanın.


METAR-TAF: